Bhiwandi, India
Current Conditions -  °F | °C
As of 8:40 PM on Thursday 27 Nov 2014 (Local Time) from VABB Reporting Station
Smoke Smoke  
Wind Chill: 82°   Ceiling: Unl
Heat Index: 83°   Visibility: 1.1mi
Dew Point: 61°   Wind: 0mph
Humidity: 48%   Direction: NA
Pressure: 29.85"   Gusts: NA
Location:  19.3°N, 73.05°E
Report Text: VABB 271540Z 00000KT 1800 FU NSC 28/16 Q1011 NOSIG
Loading
Personal Weather Stations






























Interactive Weather Map New forecast layout! Learn more

10-Day Weather Forecast

Advertisements
Track Severe Weather on mobile